sensor_id;sensor_type;location;lat;lon;timestamp;temperature;humidity
18888;DHT22;9576;47.792;9.628;2022-10-23T00:00:33;10.10;99.90
18888;DHT22;9576;47.792;9.628;2022-10-23T00:03:36;10.10;99.90
18888;DHT22;9576;47.792;9.628;2022-10-23T00:06:38;10.10;99.90
18888;DHT22;9576;47.792;9.628;2022-10-23T00:09:40;10.10;99.90
18888;DHT22;9576;47.792;9.628;2022-10-23T00:12:42;10.00;99.90
18888;DHT22;9576;47.792;9.628;2022-10-23T00:15:44;10.00;99.90
18888;DHT22;9576;47.792;9.628;2022-10-23T00:18:48;10.00;99.90
18888;DHT22;9576;47.792;9.628;2022-10-23T00:21:50;10.00;99.90
18888;DHT22;9576;47.792;9.628;2022-10-23T00:24:52;10.00;99.90
18888;DHT22;9576;47.792;9.628;2022-10-23T00:27:54;10.00;99.90
18888;DHT22;9576;47.792;9.628;2022-10-23T00:30:56;10.10;99.90
18888;DHT22;9576;47.792;9.628;2022-10-23T00:33:59;10.10;99.90
18888;DHT22;9576;47.792;9.628;2022-10-23T00:37:01;10.10;99.90
18888;DHT22;9576;47.792;9.628;2022-10-23T00:40:03;10.10;99.90
18888;DHT22;9576;47.792;9.628;2022-10-23T00:43:06;10.20;99.90
18888;DHT22;9576;47.792;9.628;2022-10-23T00:46:14;10.20;99.90
18888;DHT22;9576;47.792;9.628;2022-10-23T00:49:17;10.10;99.90
18888;DHT22;9576;47.792;9.628;2022-10-23T00:52:20;10.10;99.90
18888;DHT22;9576;47.792;9.628;2022-10-23T00:55:23;10.10;99.90
18888;DHT22;9576;47.792;9.628;2022-10-23T00:58:25;10.10;99.90
18888;DHT22;9576;47.792;9.628;2022-10-23T01:01:27;10.00;99.90
18888;DHT22;9576;47.792;9.628;2022-10-23T01:04:31;10.00;99.90
18888;DHT22;9576;47.792;9.628;2022-10-23T01:07:37;10.00;99.90
18888;DHT22;9576;47.792;9.628;2022-10-23T01:10:44;10.00;99.90
18888;DHT22;9576;47.792;9.628;2022-10-23T01:13:56;10.00;99.90
18888;DHT22;9576;47.792;9.628;2022-10-23T01:17:05;10.00;99.90
18888;DHT22;9576;47.792;9.628;2022-10-23T01:20:26;10.00;99.90
18888;DHT22;9576;47.792;9.628;2022-10-23T01:23:46;10.00;99.90
18888;DHT22;9576;47.792;9.628;2022-10-23T01:27:10;10.00;99.90
18888;DHT22;9576;47.792;9.628;2022-10-23T01:30:15;10.00;99.90
18888;DHT22;9576;47.792;9.628;2022-10-23T01:33:22;10.00;99.90
18888;DHT22;9576;47.792;9.628;2022-10-23T01:36:28;10.00;99.90
18888;DHT22;9576;47.792;9.628;2022-10-23T01:39:34;10.00;99.90
18888;DHT22;9576;47.792;9.628;2022-10-23T01:42:43;10.00;99.90
18888;DHT22;9576;47.792;9.628;2022-10-23T01:45:49;9.90;99.90
18888;DHT22;9576;47.792;9.628;2022-10-23T01:48:53;9.90;99.90
18888;DHT22;9576;47.792;9.628;2022-10-23T01:51:58;9.90;99.90
18888;DHT22;9576;47.792;9.628;2022-10-23T01:55:02;9.90;99.90
18888;DHT22;9576;47.792;9.628;2022-10-23T01:58:06;9.80;99.90
18888;DHT22;9576;47.792;9.628;2022-10-23T02:01:10;9.80;99.90
18888;DHT22;9576;47.792;9.628;2022-10-23T02:04:17;9.80;99.90
18888;DHT22;9576;47.792;9.628;2022-10-23T02:07:20;9.70;99.90
18888;DHT22;9576;47.792;9.628;2022-10-23T02:10:24;9.70;99.90
18888;DHT22;9576;47.792;9.628;2022-10-23T02:13:33;9.70;99.90
18888;DHT22;9576;47.792;9.628;2022-10-23T02:16:41;9.70;99.90
18888;DHT22;9576;47.792;9.628;2022-10-23T02:19:52;9.70;99.90
18888;DHT22;9576;47.792;9.628;2022-10-23T02:22:59;9.70;99.90
18888;DHT22;9576;47.792;9.628;2022-10-23T02:26:06;9.80;99.90
18888;DHT22;9576;47.792;9.628;2022-10-23T02:29:16;9.80;99.90
18888;DHT22;9576;47.792;9.628;2022-10-23T02:32:21;9.70;99.90
18888;DHT22;9576;47.792;9.628;2022-10-23T02:35:24;9.70;99.90
18888;DHT22;9576;47.792;9.628;2022-10-23T02:38:29;9.70;99.90
18888;DHT22;9576;47.792;9.628;2022-10-23T02:41:38;9.70;99.90
18888;DHT22;9576;47.792;9.628;2022-10-23T02:44:52;9.60;99.90
18888;DHT22;9576;47.792;9.628;2022-10-23T02:47:59;9.50;99.90
18888;DHT22;9576;47.792;9.628;2022-10-23T02:51:08;9.50;99.90
18888;DHT22;9576;47.792;9.628;2022-10-23T02:54:18;9.30;99.90
18888;DHT22;9576;47.792;9.628;2022-10-23T02:57:26;9.30;99.90
18888;DHT22;9576;47.792;9.628;2022-10-23T03:00:32;9.40;99.90
18888;DHT22;9576;47.792;9.628;2022-10-23T03:03:38;9.40;99.90
18888;DHT22;9576;47.792;9.628;2022-10-23T03:06:41;9.50;99.90
18888;DHT22;9576;47.792;9.628;2022-10-23T03:09:43;9.50;99.90
18888;DHT22;9576;47.792;9.628;2022-10-23T03:12:45;9.50;99.90
18888;DHT22;9576;47.792;9.628;2022-10-23T03:15:49;9.40;99.90
18888;DHT22;9576;47.792;9.628;2022-10-23T03:18:51;9.40;99.90
18888;DHT22;9576;47.792;9.628;2022-10-23T03:21:53;9.40;99.90
18888;DHT22;9576;47.792;9.628;2022-10-23T03:24:55;9.40;99.90
18888;DHT22;9576;47.792;9.628;2022-10-23T03:27:57;9.40;99.90
18888;DHT22;9576;47.792;9.628;2022-10-23T03:31:01;9.40;99.90
18888;DHT22;9576;47.792;9.628;2022-10-23T03:34:03;9.40;99.90
18888;DHT22;9576;47.792;9.628;2022-10-23T03:37:09;9.40;99.90
18888;DHT22;9576;47.792;9.628;2022-10-23T03:40:11;9.40;99.90
18888;DHT22;9576;47.792;9.628;2022-10-23T03:43:13;9.40;99.90
18888;DHT22;9576;47.792;9.628;2022-10-23T03:46:17;9.40;99.90
18888;DHT22;9576;47.792;9.628;2022-10-23T03:49:19;9.40;99.90
18888;DHT22;9576;47.792;9.628;2022-10-23T03:52:20;9.40;99.90
18888;DHT22;9576;47.792;9.628;2022-10-23T03:55:22;9.40;99.90
18888;DHT22;9576;47.792;9.628;2022-10-23T03:58:26;9.40;99.90
18888;DHT22;9576;47.792;9.628;2022-10-23T04:01:29;9.40;99.90
18888;DHT22;9576;47.792;9.628;2022-10-23T04:04:31;9.40;99.90
18888;DHT22;9576;47.792;9.628;2022-10-23T04:07:33;9.50;99.90
18888;DHT22;9576;47.792;9.628;2022-10-23T04:10:35;9.50;99.90
18888;DHT22;9576;47.792;9.628;2022-10-23T04:13:37;9.50;99.90
18888;DHT22;9576;47.792;9.628;2022-10-23T04:16:40;9.50;99.90
18888;DHT22;9576;47.792;9.628;2022-10-23T04:19:42;9.50;99.90
18888;DHT22;9576;47.792;9.628;2022-10-23T04:22:44;9.50;99.90
18888;DHT22;9576;47.792;9.628;2022-10-23T04:25:46;9.50;99.90
18888;DHT22;9576;47.792;9.628;2022-10-23T04:28:48;9.50;99.90
18888;DHT22;9576;47.792;9.628;2022-10-23T04:31:51;9.50;99.90
18888;DHT22;9576;47.792;9.628;2022-10-23T04:34:53;9.50;99.90
18888;DHT22;9576;47.792;9.628;2022-10-23T04:37:55;9.40;99.90
18888;DHT22;9576;47.792;9.628;2022-10-23T04:40:57;9.30;99.90
18888;DHT22;9576;47.792;9.628;2022-10-23T04:43:59;9.30;99.90
18888;DHT22;9576;47.792;9.628;2022-10-23T04:47:02;9.30;99.90
18888;DHT22;9576;47.792;9.628;2022-10-23T04:50:06;9.20;99.90
18888;DHT22;9576;47.792;9.628;2022-10-23T04:53:08;9.20;99.90
18888;DHT22;9576;47.792;9.628;2022-10-23T04:56:12;9.20;99.90
18888;DHT22;9576;47.792;9.628;2022-10-23T04:59:14;9.10;99.90
18888;DHT22;9576;47.792;9.628;2022-10-23T05:02:17;9.10;99.90
18888;DHT22;9576;47.792;9.628;2022-10-23T05:05:19;9.00;99.90
18888;DHT22;9576;47.792;9.628;2022-10-23T05:08:22;9.10;99.90
18888;DHT22;9576;47.792;9.628;2022-10-23T05:11:24;9.00;99.90
18888;DHT22;9576;47.792;9.628;2022-10-23T05:14:26;9.00;99.90
18888;DHT22;9576;47.792;9.628;2022-10-23T05:17:32;9.00;99.90
18888;DHT22;9576;47.792;9.628;2022-10-23T05:20:35;9.00;99.90
18888;DHT22;9576;47.792;9.628;2022-10-23T05:23:40;9.00;99.90
18888;DHT22;9576;47.792;9.628;2022-10-23T05:26:42;9.00;99.90
18888;DHT22;9576;47.792;9.628;2022-10-23T05:29:44;9.00;99.90
18888;DHT22;9576;47.792;9.628;2022-10-23T05:32:47;9.00;99.90
18888;DHT22;9576;47.792;9.628;2022-10-23T05:35:49;9.00;99.90
18888;DHT22;9576;47.792;9.628;2022-10-23T05:38:51;9.00;99.90
18888;DHT22;9576;47.792;9.628;2022-10-23T05:41:54;8.90;99.90
18888;DHT22;9576;47.792;9.628;2022-10-23T05:44:55;8.90;99.90
18888;DHT22;9576;47.792;9.628;2022-10-23T05:47:59;8.80;99.90
18888;DHT22;9576;47.792;9.628;2022-10-23T05:51:05;8.80;99.90
18888;DHT22;9576;47.792;9.628;2022-10-23T05:54:07;8.70;99.90
18888;DHT22;9576;47.792;9.628;2022-10-23T05:57:09;8.60;99.90
18888;DHT22;9576;47.792;9.628;2022-10-23T06:00:12;8.60;99.90
18888;DHT22;9576;47.792;9.628;2022-10-23T06:03:15;8.70;99.90
18888;DHT22;9576;47.792;9.628;2022-10-23T06:06:17;8.70;99.90
18888;DHT22;9576;47.792;9.628;2022-10-23T06:09:19;8.70;99.90
18888;DHT22;9576;47.792;9.628;2022-10-23T06:12:21;8.80;99.90
18888;DHT22;9576;47.792;9.628;2022-10-23T06:15:23;8.80;99.90
18888;DHT22;9576;47.792;9.628;2022-10-23T06:18:26;8.90;99.90
18888;DHT22;9576;47.792;9.628;2022-10-23T06:21:28;8.90;99.90
18888;DHT22;9576;47.792;9.628;2022-10-23T06:24:30;9.00;99.90
18888;DHT22;9576;47.792;9.628;2022-10-23T06:27:32;8.90;99.90
18888;DHT22;9576;47.792;9.628;2022-10-23T06:30:38;9.00;99.90
18888;DHT22;9576;47.792;9.628;2022-10-23T06:33:41;9.10;99.90
18888;DHT22;9576;47.792;9.628;2022-10-23T06:36:43;9.10;99.90
18888;DHT22;9576;47.792;9.628;2022-10-23T06:39:45;9.10;99.90
18888;DHT22;9576;47.792;9.628;2022-10-23T06:42:47;9.20;99.90
18888;DHT22;9576;47.792;9.628;2022-10-23T06:45:49;9.20;99.90
18888;DHT22;9576;47.792;9.628;2022-10-23T06:48:52;9.20;99.90
18888;DHT22;9576;47.792;9.628;2022-10-23T06:51:54;9.30;99.90
18888;DHT22;9576;47.792;9.628;2022-10-23T06:54:56;9.50;99.90
18888;DHT22;9576;47.792;9.628;2022-10-23T06:57:58;9.60;99.90
18888;DHT22;9576;47.792;9.628;2022-10-23T07:01:01;9.60;99.90
18888;DHT22;9576;47.792;9.628;2022-10-23T07:04:05;9.70;99.90
18888;DHT22;9576;47.792;9.628;2022-10-23T07:07:06;9.80;99.90
18888;DHT22;9576;47.792;9.628;2022-10-23T07:10:08;9.90;99.90
18888;DHT22;9576;47.792;9.628;2022-10-23T07:13:11;9.90;99.90
18888;DHT22;9576;47.792;9.628;2022-10-23T07:16:14;9.80;99.90
18888;DHT22;9576;47.792;9.628;2022-10-23T07:19:18;9.90;99.90
18888;DHT22;9576;47.792;9.628;2022-10-23T07:22:20;10.00;99.90
18888;DHT22;9576;47.792;9.628;2022-10-23T07:25:24;10.00;99.90
18888;DHT22;9576;47.792;9.628;2022-10-23T07:28:26;10.00;99.90
18888;DHT22;9576;47.792;9.628;2022-10-23T07:31:28;10.10;99.90
18888;DHT22;9576;47.792;9.628;2022-10-23T07:34:31;10.20;99.90
18888;DHT22;9576;47.792;9.628;2022-10-23T07:37:36;10.30;99.90
18888;DHT22;9576;47.792;9.628;2022-10-23T07:40:38;10.40;99.90
18888;DHT22;9576;47.792;9.628;2022-10-23T07:43:40;10.50;99.90
18888;DHT22;9576;47.792;9.628;2022-10-23T07:46:42;10.60;99.90
18888;DHT22;9576;47.792;9.628;2022-10-23T07:49:46;10.60;99.90
18888;DHT22;9576;47.792;9.628;2022-10-23T07:52:48;10.60;99.90
18888;DHT22;9576;47.792;9.628;2022-10-23T07:55:51;10.60;99.90
18888;DHT22;9576;47.792;9.628;2022-10-23T07:58:53;10.70;99.90
18888;DHT22;9576;47.792;9.628;2022-10-23T08:01:55;10.80;99.90
18888;DHT22;9576;47.792;9.628;2022-10-23T08:04:59;10.90;99.90
18888;DHT22;9576;47.792;9.628;2022-10-23T08:08:01;10.90;99.90
18888;DHT22;9576;47.792;9.628;2022-10-23T08:11:02;11.00;99.90
18888;DHT22;9576;47.792;9.628;2022-10-23T08:14:05;11.00;99.90
18888;DHT22;9576;47.792;9.628;2022-10-23T08:17:07;11.10;99.90
18888;DHT22;9576;47.792;9.628;2022-10-23T08:20:12;11.20;99.90
18888;DHT22;9576;47.792;9.628;2022-10-23T08:23:15;11.30;99.90
18888;DHT22;9576;47.792;9.628;2022-10-23T08:26:18;11.40;99.90
18888;DHT22;9576;47.792;9.628;2022-10-23T08:29:20;11.50;99.90
18888;DHT22;9576;47.792;9.628;2022-10-23T08:32:22;11.60;99.90
18888;DHT22;9576;47.792;9.628;2022-10-23T08:35:25;11.70;99.90
18888;DHT22;9576;47.792;9.628;2022-10-23T08:38:27;11.70;99.90
18888;DHT22;9576;47.792;9.628;2022-10-23T08:41:32;11.70;99.90
18888;DHT22;9576;47.792;9.628;2022-10-23T08:44:39;11.70;99.90
18888;DHT22;9576;47.792;9.628;2022-10-23T08:47:47;11.80;99.90
18888;DHT22;9576;47.792;9.628;2022-10-23T08:50:57;11.90;99.90
18888;DHT22;9576;47.792;9.628;2022-10-23T08:54:04;11.90;99.90
18888;DHT22;9576;47.792;9.628;2022-10-23T08:57:11;12.00;99.90
18888;DHT22;9576;47.792;9.628;2022-10-23T09:00:15;12.00;99.90
18888;DHT22;9576;47.792;9.628;2022-10-23T09:03:17;12.00;99.90
18888;DHT22;9576;47.792;9.628;2022-10-23T09:06:29;12.10;99.90
18888;DHT22;9576;47.792;9.628;2022-10-23T09:09:45;12.20;99.90
18888;DHT22;9576;47.792;9.628;2022-10-23T09:12:51;12.40;99.90
18888;DHT22;9576;47.792;9.628;2022-10-23T09:15:58;12.50;99.90
18888;DHT22;9576;47.792;9.628;2022-10-23T09:19:10;12.60;99.90
18888;DHT22;9576;47.792;9.628;2022-10-23T09:22:14;12.80;99.90
18888;DHT22;9576;47.792;9.628;2022-10-23T09:25:18;12.80;99.90
18888;DHT22;9576;47.792;9.628;2022-10-23T09:28:21;12.80;99.90
18888;DHT22;9576;47.792;9.628;2022-10-23T09:31:24;13.00;99.90
18888;DHT22;9576;47.792;9.628;2022-10-23T09:34:27;13.10;99.90
18888;DHT22;9576;47.792;9.628;2022-10-23T09:37:32;13.20;99.90
18888;DHT22;9576;47.792;9.628;2022-10-23T09:40:38;13.30;99.90
18888;DHT22;9576;47.792;9.628;2022-10-23T09:43:41;13.50;99.90
18888;DHT22;9576;47.792;9.628;2022-10-23T09:46:44;13.70;99.90
18888;DHT22;9576;47.792;9.628;2022-10-23T09:49:48;13.90;99.90
18888;DHT22;9576;47.792;9.628;2022-10-23T09:52:53;14.10;99.90
18888;DHT22;9576;47.792;9.628;2022-10-23T09:55:59;14.30;99.90
18888;DHT22;9576;47.792;9.628;2022-10-23T09:59:04;14.40;99.90
18888;DHT22;9576;47.792;9.628;2022-10-23T10:02:15;14.60;99.90
18888;DHT22;9576;47.792;9.628;2022-10-23T10:05:21;14.80;99.90
18888;DHT22;9576;47.792;9.628;2022-10-23T10:08:33;15.00;99.90
18888;DHT22;9576;47.792;9.628;2022-10-23T10:11:39;15.30;99.90
18888;DHT22;9576;47.792;9.628;2022-10-23T10:14:50;15.40;99.90
18888;DHT22;9576;47.792;9.628;2022-10-23T10:18:03;15.60;99.90
18888;DHT22;9576;47.792;9.628;2022-10-23T10:21:13;15.70;99.90
18888;DHT22;9576;47.792;9.628;2022-10-23T10:24:27;15.90;99.90
18888;DHT22;9576;47.792;9.628;2022-10-23T10:27:39;16.00;99.90
18888;DHT22;9576;47.792;9.628;2022-10-23T10:30:50;16.10;99.90
18888;DHT22;9576;47.792;9.628;2022-10-23T10:34:03;16.10;99.90
18888;DHT22;9576;47.792;9.628;2022-10-23T10:37:19;16.40;99.90
18888;DHT22;9576;47.792;9.628;2022-10-23T10:40:29;16.50;99.90
18888;DHT22;9576;47.792;9.628;2022-10-23T10:43:37;16.60;99.90
18888;DHT22;9576;47.792;9.628;2022-10-23T10:46:45;16.70;99.90
18888;DHT22;9576;47.792;9.628;2022-10-23T10:49:58;16.80;99.90
18888;DHT22;9576;47.792;9.628;2022-10-23T10:53:08;16.90;99.90
18888;DHT22;9576;47.792;9.628;2022-10-23T10:56:17;17.10;99.90
18888;DHT22;9576;47.792;9.628;2022-10-23T10:59:23;17.30;99.90
18888;DHT22;9576;47.792;9.628;2022-10-23T11:02:30;17.30;99.90
18888;DHT22;9576;47.792;9.628;2022-10-23T11:05:37;17.40;99.90
18888;DHT22;9576;47.792;9.628;2022-10-23T11:08:41;17.40;99.90
18888;DHT22;9576;47.792;9.628;2022-10-23T11:11:45;17.50;99.90
18888;DHT22;9576;47.792;9.628;2022-10-23T11:14:48;17.60;99.90
18888;DHT22;9576;47.792;9.628;2022-10-23T11:17:54;17.50;99.90
18888;DHT22;9576;47.792;9.628;2022-10-23T11:21:08;17.40;99.90
18888;DHT22;9576;47.792;9.628;2022-10-23T11:24:54;17.50;99.90
18888;DHT22;9576;47.792;9.628;2022-10-23T11:28:12;17.50;99.90
18888;DHT22;9576;47.792;9.628;2022-10-23T11:31:24;17.70;99.90
18888;DHT22;9576;47.792;9.628;2022-10-23T11:34:49;17.80;99.90
18888;DHT22;9576;47.792;9.628;2022-10-23T11:37:59;17.90;99.90
18888;DHT22;9576;47.792;9.628;2022-10-23T11:41:16;18.00;99.90
18888;DHT22;9576;47.792;9.628;2022-10-23T11:44:27;18.20;99.90
18888;DHT22;9576;47.792;9.628;2022-10-23T11:47:38;18.40;99.90
18888;DHT22;9576;47.792;9.628;2022-10-23T11:50:50;18.50;99.90
18888;DHT22;9576;47.792;9.628;2022-10-23T11:54:04;18.80;99.90
18888;DHT22;9576;47.792;9.628;2022-10-23T11:57:11;18.80;99.90
18888;DHT22;9576;47.792;9.628;2022-10-23T12:00:20;18.70;99.90
18888;DHT22;9576;47.792;9.628;2022-10-23T12:03:26;18.40;99.90
18888;DHT22;9576;47.792;9.628;2022-10-23T12:06:31;18.20;99.90
18888;DHT22;9576;47.792;9.628;2022-10-23T12:09:39;18.10;99.90
18888;DHT22;9576;47.792;9.628;2022-10-23T12:12:42;18.10;99.90
18888;DHT22;9576;47.792;9.628;2022-10-23T12:15:56;17.90;99.90
18888;DHT22;9576;47.792;9.628;2022-10-23T12:19:15;17.90;99.90
18888;DHT22;9576;47.792;9.628;2022-10-23T12:22:18;17.80;99.90
18888;DHT22;9576;47.792;9.628;2022-10-23T12:25:24;17.80;99.90
18888;DHT22;9576;47.792;9.628;2022-10-23T12:28:32;17.80;99.90
18888;DHT22;9576;47.792;9.628;2022-10-23T12:31:45;17.80;99.90
18888;DHT22;9576;47.792;9.628;2022-10-23T12:35:02;17.70;99.90
18888;DHT22;9576;47.792;9.628;2022-10-23T12:38:12;17.80;99.90
18888;DHT22;9576;47.792;9.628;2022-10-23T12:41:18;17.70;99.90
18888;DHT22;9576;47.792;9.628;2022-10-23T12:44:22;17.70;99.90
18888;DHT22;9576;47.792;9.628;2022-10-23T12:47:26;17.70;99.90
18888;DHT22;9576;47.792;9.628;2022-10-23T12:50:33;17.70;99.90
18888;DHT22;9576;47.792;9.628;2022-10-23T12:53:35;17.70;99.90
18888;DHT22;9576;47.792;9.628;2022-10-23T12:56:37;17.80;99.90
18888;DHT22;9576;47.792;9.628;2022-10-23T12:59:39;17.90;99.90
18888;DHT22;9576;47.792;9.628;2022-10-23T13:02:45;17.90;99.90
18888;DHT22;9576;47.792;9.628;2022-10-23T13:05:48;18.00;99.90
18888;DHT22;9576;47.792;9.628;2022-10-23T13:08:51;18.10;99.90
18888;DHT22;9576;47.792;9.628;2022-10-23T13:11:54;18.40;99.90
18888;DHT22;9576;47.792;9.628;2022-10-23T13:14:59;18.70;99.90
18888;DHT22;9576;47.792;9.628;2022-10-23T13:18:04;18.90;99.90
18888;DHT22;9576;47.792;9.628;2022-10-23T13:21:09;18.80;99.90
18888;DHT22;9576;47.792;9.628;2022-10-23T13:24:18;18.70;99.90
18888;DHT22;9576;47.792;9.628;2022-10-23T13:27:31;18.60;99.90
18888;DHT22;9576;47.792;9.628;2022-10-23T13:30:35;18.40;99.90
18888;DHT22;9576;47.792;9.628;2022-10-23T13:33:40;18.20;99.90
18888;DHT22;9576;47.792;9.628;2022-10-23T13:36:54;18.10;99.90
18888;DHT22;9576;47.792;9.628;2022-10-23T13:40:00;18.10;99.90
18888;DHT22;9576;47.792;9.628;2022-10-23T13:43:12;18.00;99.90
18888;DHT22;9576;47.792;9.628;2022-10-23T13:46:16;18.00;99.90
18888;DHT22;9576;47.792;9.628;2022-10-23T13:49:19;17.90;99.90
18888;DHT22;9576;47.792;9.628;2022-10-23T13:52:22;17.90;99.90
18888;DHT22;9576;47.792;9.628;2022-10-23T13:55:24;17.70;99.90
18888;DHT22;9576;47.792;9.628;2022-10-23T13:58:27;17.60;99.90
18888;DHT22;9576;47.792;9.628;2022-10-23T14:01:32;17.50;99.90
18888;DHT22;9576;47.792;9.628;2022-10-23T14:04:36;17.40;99.90
18888;DHT22;9576;47.792;9.628;2022-10-23T14:07:38;17.20;99.90
18888;DHT22;9576;47.792;9.628;2022-10-23T14:10:40;17.10;99.90
18888;DHT22;9576;47.792;9.628;2022-10-23T14:13:42;16.90;99.90
18888;DHT22;9576;47.792;9.628;2022-10-23T14:16:44;16.90;99.90
18888;DHT22;9576;47.792;9.628;2022-10-23T14:19:47;16.80;99.90
18888;DHT22;9576;47.792;9.628;2022-10-23T14:22:49;16.80;99.90
18888;DHT22;9576;47.792;9.628;2022-10-23T14:25:51;16.90;99.90
18888;DHT22;9576;47.792;9.628;2022-10-23T14:28:54;16.90;99.90
18888;DHT22;9576;47.792;9.628;2022-10-23T14:31:56;16.90;99.90
18888;DHT22;9576;47.792;9.628;2022-10-23T14:34:59;16.90;99.90
18888;DHT22;9576;47.792;9.628;2022-10-23T14:38:03;17.00;99.90
18888;DHT22;9576;47.792;9.628;2022-10-23T14:41:09;17.00;99.90
18888;DHT22;9576;47.792;9.628;2022-10-23T14:44:12;16.90;99.90
18888;DHT22;9576;47.792;9.628;2022-10-23T14:47:14;16.90;99.90
18888;DHT22;9576;47.792;9.628;2022-10-23T14:50:17;16.80;99.90
18888;DHT22;9576;47.792;9.628;2022-10-23T14:53:19;16.60;99.90
18888;DHT22;9576;47.792;9.628;2022-10-23T14:56:21;16.50;99.90
18888;DHT22;9576;47.792;9.628;2022-10-23T14:59:23;16.50;99.90
18888;DHT22;9576;47.792;9.628;2022-10-23T15:02:25;16.30;99.90
18888;DHT22;9576;47.792;9.628;2022-10-23T15:05:28;16.20;99.90
18888;DHT22;9576;47.792;9.628;2022-10-23T15:08:30;16.10;99.90
18888;DHT22;9576;47.792;9.628;2022-10-23T15:11:32;16.00;99.90
18888;DHT22;9576;47.792;9.628;2022-10-23T15:14:34;16.10;99.90
18888;DHT22;9576;47.792;9.628;2022-10-23T15:17:36;16.10;99.90
18888;DHT22;9576;47.792;9.628;2022-10-23T15:20:40;16.10;99.90
18888;DHT22;9576;47.792;9.628;2022-10-23T15:23:43;16.00;99.90
18888;DHT22;9576;47.792;9.628;2022-10-23T15:26:45;16.00;99.90
18888;DHT22;9576;47.792;9.628;2022-10-23T15:29:48;15.90;99.90
18888;DHT22;9576;47.792;9.628;2022-10-23T15:32:50;15.90;99.90
18888;DHT22;9576;47.792;9.628;2022-10-23T15:35:53;15.80;99.90
18888;DHT22;9576;47.792;9.628;2022-10-23T15:38:56;15.70;99.90
18888;DHT22;9576;47.792;9.628;2022-10-23T15:41:58;15.70;99.90
18888;DHT22;9576;47.792;9.628;2022-10-23T15:45:00;15.60;99.90
18888;DHT22;9576;47.792;9.628;2022-10-23T15:48:02;15.40;99.90
18888;DHT22;9576;47.792;9.628;2022-10-23T15:51:06;15.40;99.90
18888;DHT22;9576;47.792;9.628;2022-10-23T15:54:10;15.40;99.90
18888;DHT22;9576;47.792;9.628;2022-10-23T15:57:15;15.30;99.90
18888;DHT22;9576;47.792;9.628;2022-10-23T16:00:17;15.30;99.90
18888;DHT22;9576;47.792;9.628;2022-10-23T16:03:19;15.30;99.90
18888;DHT22;9576;47.792;9.628;2022-10-23T16:06:23;15.30;99.90
18888;DHT22;9576;47.792;9.628;2022-10-23T16:09:24;15.20;99.90
18888;DHT22;9576;47.792;9.628;2022-10-23T16:12:26;15.20;99.90
18888;DHT22;9576;47.792;9.628;2022-10-23T16:15:28;15.10;99.90
18888;DHT22;9576;47.792;9.628;2022-10-23T16:18:30;15.00;99.90
18888;DHT22;9576;47.792;9.628;2022-10-23T16:21:35;15.00;99.90
18888;DHT22;9576;47.792;9.628;2022-10-23T16:24:37;14.90;99.90
18888;DHT22;9576;47.792;9.628;2022-10-23T16:27:39;14.80;99.90
18888;DHT22;9576;47.792;9.628;2022-10-23T16:30:42;14.70;99.90
18888;DHT22;9576;47.792;9.628;2022-10-23T16:33:44;14.60;99.90
18888;DHT22;9576;47.792;9.628;2022-10-23T16:36:48;14.50;99.90
18888;DHT22;9576;47.792;9.628;2022-10-23T16:39:50;14.50;99.90
18888;DHT22;9576;47.792;9.628;2022-10-23T16:42:52;14.60;99.90
18888;DHT22;9576;47.792;9.628;2022-10-23T16:46:01;14.60;99.90
18888;DHT22;9576;47.792;9.628;2022-10-23T16:49:04;14.50;99.90
18888;DHT22;9576;47.792;9.628;2022-10-23T16:52:09;14.40;99.90
18888;DHT22;9576;47.792;9.628;2022-10-23T16:55:11;14.40;99.90
18888;DHT22;9576;47.792;9.628;2022-10-23T16:58:13;14.50;99.90
18888;DHT22;9576;47.792;9.628;2022-10-23T17:01:17;14.40;99.90
18888;DHT22;9576;47.792;9.628;2022-10-23T17:04:19;14.40;99.90
18888;DHT22;9576;47.792;9.628;2022-10-23T17:07:22;14.40;99.90
18888;DHT22;9576;47.792;9.628;2022-10-23T17:10:24;14.40;99.90
18888;DHT22;9576;47.792;9.628;2022-10-23T17:13:26;14.40;99.90
18888;DHT22;9576;47.792;9.628;2022-10-23T17:16:30;14.40;99.90
18888;DHT22;9576;47.792;9.628;2022-10-23T17:19:34;14.40;99.90
18888;DHT22;9576;47.792;9.628;2022-10-23T17:22:37;14.40;99.90
18888;DHT22;9576;47.792;9.628;2022-10-23T17:25:39;14.40;99.90
18888;DHT22;9576;47.792;9.628;2022-10-23T17:28:41;14.30;99.90
18888;DHT22;9576;47.792;9.628;2022-10-23T17:31:45;14.30;99.90
18888;DHT22;9576;47.792;9.628;2022-10-23T17:34:47;14.30;99.90
18888;DHT22;9576;47.792;9.628;2022-10-23T17:37:50;14.40;99.90
18888;DHT22;9576;47.792;9.628;2022-10-23T17:40:52;14.30;99.90
18888;DHT22;9576;47.792;9.628;2022-10-23T17:43:55;14.20;99.90
18888;DHT22;9576;47.792;9.628;2022-10-23T17:46:58;14.30;99.90
18888;DHT22;9576;47.792;9.628;2022-10-23T17:50:00;14.10;99.90
18888;DHT22;9576;47.792;9.628;2022-10-23T17:53:03;14.00;99.90
18888;DHT22;9576;47.792;9.628;2022-10-23T17:56:06;14.00;99.90
18888;DHT22;9576;47.792;9.628;2022-10-23T17:59:12;13.90;99.90
18888;DHT22;9576;47.792;9.628;2022-10-23T18:02:14;13.90;99.90
18888;DHT22;9576;47.792;9.628;2022-10-23T18:05:16;14.00;99.90
18888;DHT22;9576;47.792;9.628;2022-10-23T18:08:19;14.00;99.90
18888;DHT22;9576;47.792;9.628;2022-10-23T18:11:25;14.00;99.90
18888;DHT22;9576;47.792;9.628;2022-10-23T18:14:27;14.10;99.90
18888;DHT22;9576;47.792;9.628;2022-10-23T18:17:29;14.10;99.90
18888;DHT22;9576;47.792;9.628;2022-10-23T18:20:31;14.10;99.90
18888;DHT22;9576;47.792;9.628;2022-10-23T18:23:35;14.20;99.90
18888;DHT22;9576;47.792;9.628;2022-10-23T18:26:39;14.20;99.90
18888;DHT22;9576;47.792;9.628;2022-10-23T18:29:41;14.10;99.90
18888;DHT22;9576;47.792;9.628;2022-10-23T18:32:44;14.00;99.90
18888;DHT22;9576;47.792;9.628;2022-10-23T18:35:46;14.00;99.90
18888;DHT22;9576;47.792;9.628;2022-10-23T18:38:50;14.10;99.90
18888;DHT22;9576;47.792;9.628;2022-10-23T18:41:54;14.00;99.90
18888;DHT22;9576;47.792;9.628;2022-10-23T18:44:56;14.10;99.90
18888;DHT22;9576;47.792;9.628;2022-10-23T18:47:59;14.10;99.90
18888;DHT22;9576;47.792;9.628;2022-10-23T18:51:01;14.10;99.90
18888;DHT22;9576;47.792;9.628;2022-10-23T18:54:06;14.10;99.90
18888;DHT22;9576;47.792;9.628;2022-10-23T18:57:09;14.10;99.90
18888;DHT22;9576;47.792;9.628;2022-10-23T19:00:12;14.10;99.90
18888;DHT22;9576;47.792;9.628;2022-10-23T19:03:14;14.00;99.90
18888;DHT22;9576;47.792;9.628;2022-10-23T19:06:17;14.00;99.90
18888;DHT22;9576;47.792;9.628;2022-10-23T19:09:20;14.00;99.90
18888;DHT22;9576;47.792;9.628;2022-10-23T19:12:22;14.00;99.90
18888;DHT22;9576;47.792;9.628;2022-10-23T19:15:24;14.10;99.90
18888;DHT22;9576;47.792;9.628;2022-10-23T19:18:26;14.10;99.90
18888;DHT22;9576;47.792;9.628;2022-10-23T19:21:33;14.00;99.90
18888;DHT22;9576;47.792;9.628;2022-10-23T19:24:40;13.90;99.90
18888;DHT22;9576;47.792;9.628;2022-10-23T19:27:45;14.00;99.90
18888;DHT22;9576;47.792;9.628;2022-10-23T19:30:47;14.10;99.90
18888;DHT22;9576;47.792;9.628;2022-10-23T19:33:49;14.10;99.90
18888;DHT22;9576;47.792;9.628;2022-10-23T19:36:52;14.10;99.90
18888;DHT22;9576;47.792;9.628;2022-10-23T19:39:55;14.10;99.90
18888;DHT22;9576;47.792;9.628;2022-10-23T19:42:57;14.10;99.90
18888;DHT22;9576;47.792;9.628;2022-10-23T19:46:00;14.00;99.90
18888;DHT22;9576;47.792;9.628;2022-10-23T19:49:03;14.00;99.90